sensor_id;sensor_type;location;lat;lon;timestamp;temperature;humidity
37232;DHT22;23125;48.156;15.954;2023-07-09T00:01:38;22.10;45.30
37232;DHT22;23125;48.156;15.954;2023-07-09T00:04:04;22.10;45.40
37232;DHT22;23125;48.156;15.954;2023-07-09T00:06:30;22.10;45.40
37232;DHT22;23125;48.156;15.954;2023-07-09T00:10:31;22.00;44.90
37232;DHT22;23125;48.156;15.954;2023-07-09T00:12:59;22.00;45.90
37232;DHT22;23125;48.156;15.954;2023-07-09T00:15:26;22.00;46.20
37232;DHT22;23125;48.156;15.954;2023-07-09T00:17:52;21.80;46.50
37232;DHT22;23125;48.156;15.954;2023-07-09T00:20:19;21.80;46.70
37232;DHT22;23125;48.156;15.954;2023-07-09T00:22:45;21.80;47.00
37232;DHT22;23125;48.156;15.954;2023-07-09T00:25:19;21.70;47.30
37232;DHT22;23125;48.156;15.954;2023-07-09T00:27:46;21.60;47.50
37232;DHT22;23125;48.156;15.954;2023-07-09T00:30:20;21.60;47.70
37232;DHT22;23125;48.156;15.954;2023-07-09T00:32:48;21.60;48.00
37232;DHT22;23125;48.156;15.954;2023-07-09T00:35:14;21.50;48.00
37232;DHT22;23125;48.156;15.954;2023-07-09T00:37:42;21.50;48.30
37232;DHT22;23125;48.156;15.954;2023-07-09T00:40:15;21.40;48.40
37232;DHT22;23125;48.156;15.954;2023-07-09T00:42:47;21.40;48.70
37232;DHT22;23125;48.156;15.954;2023-07-09T00:45:25;21.30;48.80
37232;DHT22;23125;48.156;15.954;2023-07-09T00:47:58;21.30;49.20
37232;DHT22;23125;48.156;15.954;2023-07-09T00:50:29;21.30;49.40
37232;DHT22;23125;48.156;15.954;2023-07-09T00:53:04;21.20;49.40
37232;DHT22;23125;48.156;15.954;2023-07-09T00:55:36;21.20;49.60
37232;DHT22;23125;48.156;15.954;2023-07-09T00:58:06;21.20;49.80
37232;DHT22;23125;48.156;15.954;2023-07-09T01:00:36;21.20;49.90
37232;DHT22;23125;48.156;15.954;2023-07-09T01:03:40;21.10;49.90
37232;DHT22;23125;48.156;15.954;2023-07-09T01:06:09;21.10;50.10
37232;DHT22;23125;48.156;15.954;2023-07-09T01:08:37;21.10;50.10
37232;DHT22;23125;48.156;15.954;2023-07-09T01:11:25;21.00;50.30
37232;DHT22;23125;48.156;15.954;2023-07-09T01:14:17;21.00;50.50
37232;DHT22;23125;48.156;15.954;2023-07-09T01:16:55;21.00;50.60
37232;DHT22;23125;48.156;15.954;2023-07-09T01:19:28;20.90;50.80
37232;DHT22;23125;48.156;15.954;2023-07-09T01:21:59;20.90;50.80
37232;DHT22;23125;48.156;15.954;2023-07-09T01:24:52;20.90;51.00
37232;DHT22;23125;48.156;15.954;2023-07-09T01:27:22;20.90;51.00
37232;DHT22;23125;48.156;15.954;2023-07-09T01:29:48;20.80;51.10
37232;DHT22;23125;48.156;15.954;2023-07-09T01:32:19;20.80;51.30
37232;DHT22;23125;48.156;15.954;2023-07-09T01:34:48;20.80;51.40
37232;DHT22;23125;48.156;15.954;2023-07-09T01:37:17;20.80;52.10
37232;DHT22;23125;48.156;15.954;2023-07-09T01:39:43;20.70;51.50
37232;DHT22;23125;48.156;15.954;2023-07-09T01:42:09;20.70;51.60
37232;DHT22;23125;48.156;15.954;2023-07-09T01:44:36;20.60;51.70
37232;DHT22;23125;48.156;15.954;2023-07-09T01:47:05;20.60;51.80
37232;DHT22;23125;48.156;15.954;2023-07-09T01:49:31;20.60;52.00
37232;DHT22;23125;48.156;15.954;2023-07-09T01:52:01;20.50;52.00
37232;DHT22;23125;48.156;15.954;2023-07-09T01:54:30;20.60;52.20
37232;DHT22;23125;48.156;15.954;2023-07-09T01:59:42;20.50;52.30
37232;DHT22;23125;48.156;15.954;2023-07-09T02:02:10;20.50;52.30
37232;DHT22;23125;48.156;15.954;2023-07-09T02:04:41;20.50;52.50
37232;DHT22;23125;48.156;15.954;2023-07-09T02:07:08;20.40;52.40
37232;DHT22;23125;48.156;15.954;2023-07-09T02:09:34;20.40;52.60
37232;DHT22;23125;48.156;15.954;2023-07-09T02:12:00;20.40;52.80
37232;DHT22;23125;48.156;15.954;2023-07-09T02:14:28;20.30;52.80
37232;DHT22;23125;48.156;15.954;2023-07-09T02:16:54;20.30;52.80
37232;DHT22;23125;48.156;15.954;2023-07-09T02:19:20;20.30;53.00
37232;DHT22;23125;48.156;15.954;2023-07-09T02:21:46;20.30;53.30
37232;DHT22;23125;48.156;15.954;2023-07-09T02:24:12;20.20;53.10
37232;DHT22;23125;48.156;15.954;2023-07-09T02:26:37;20.30;53.10
37232;DHT22;23125;48.156;15.954;2023-07-09T02:29:04;20.20;53.20
37232;DHT22;23125;48.156;15.954;2023-07-09T02:31:30;20.20;53.40
37232;DHT22;23125;48.156;15.954;2023-07-09T02:33:57;20.20;53.40
37232;DHT22;23125;48.156;15.954;2023-07-09T02:36:24;20.10;53.40
37232;DHT22;23125;48.156;15.954;2023-07-09T02:38:50;20.10;53.50
37232;DHT22;23125;48.156;15.954;2023-07-09T02:41:16;20.10;53.50
37232;DHT22;23125;48.156;15.954;2023-07-09T02:43:42;20.10;53.60
37232;DHT22;23125;48.156;15.954;2023-07-09T02:46:08;20.00;53.60
37232;DHT22;23125;48.156;15.954;2023-07-09T02:48:34;20.00;53.80
37232;DHT22;23125;48.156;15.954;2023-07-09T02:50:59;20.00;53.90
37232;DHT22;23125;48.156;15.954;2023-07-09T02:53:27;20.00;54.00
37232;DHT22;23125;48.156;15.954;2023-07-09T02:55:53;19.90;54.00
37232;DHT22;23125;48.156;15.954;2023-07-09T02:58:19;19.90;54.70
37232;DHT22;23125;48.156;15.954;2023-07-09T03:00:44;19.90;54.20
37232;DHT22;23125;48.156;15.954;2023-07-09T03:03:19;19.90;54.30
37232;DHT22;23125;48.156;15.954;2023-07-09T03:05:47;19.90;54.30
37232;DHT22;23125;48.156;15.954;2023-07-09T03:08:13;19.90;54.40
37232;DHT22;23125;48.156;15.954;2023-07-09T03:10:40;19.80;54.40
37232;DHT22;23125;48.156;15.954;2023-07-09T03:13:06;19.80;54.50
37232;DHT22;23125;48.156;15.954;2023-07-09T03:15:32;19.80;54.60
37232;DHT22;23125;48.156;15.954;2023-07-09T03:17:58;19.80;54.70
37232;DHT22;23125;48.156;15.954;2023-07-09T03:20:24;19.70;54.70
37232;DHT22;23125;48.156;15.954;2023-07-09T03:22:51;19.80;54.80
37232;DHT22;23125;48.156;15.954;2023-07-09T03:25:17;19.70;54.90
37232;DHT22;23125;48.156;15.954;2023-07-09T03:27:42;19.70;55.00
37232;DHT22;23125;48.156;15.954;2023-07-09T03:30:09;19.70;55.10
37232;DHT22;23125;48.156;15.954;2023-07-09T03:32:35;19.70;55.70
37232;DHT22;23125;48.156;15.954;2023-07-09T03:35:01;19.70;55.20
37232;DHT22;23125;48.156;15.954;2023-07-09T03:37:26;19.70;55.30
37232;DHT22;23125;48.156;15.954;2023-07-09T03:39:52;19.70;55.40
37232;DHT22;23125;48.156;15.954;2023-07-09T03:42:18;19.70;55.40
37232;DHT22;23125;48.156;15.954;2023-07-09T03:44:44;19.70;55.40
37232;DHT22;23125;48.156;15.954;2023-07-09T03:47:10;19.70;55.40
37232;DHT22;23125;48.156;15.954;2023-07-09T03:49:35;19.80;55.50
37232;DHT22;23125;48.156;15.954;2023-07-09T03:52:01;19.80;55.50
37232;DHT22;23125;48.156;15.954;2023-07-09T03:54:28;19.80;55.60
37232;DHT22;23125;48.156;15.954;2023-07-09T03:56:54;19.80;55.70
37232;DHT22;23125;48.156;15.954;2023-07-09T03:59:20;19.80;55.80
37232;DHT22;23125;48.156;15.954;2023-07-09T04:01:45;19.80;55.80
37232;DHT22;23125;48.156;15.954;2023-07-09T04:04:14;19.90;55.80
37232;DHT22;23125;48.156;15.954;2023-07-09T04:06:41;19.90;55.80
37232;DHT22;23125;48.156;15.954;2023-07-09T04:09:06;19.90;55.90
37232;DHT22;23125;48.156;15.954;2023-07-09T04:11:33;19.90;56.00
37232;DHT22;23125;48.156;15.954;2023-07-09T04:13:59;19.90;56.10
37232;DHT22;23125;48.156;15.954;2023-07-09T04:16:24;20.00;56.20
37232;DHT22;23125;48.156;15.954;2023-07-09T04:18:50;20.00;56.30
37232;DHT22;23125;48.156;15.954;2023-07-09T04:21:16;20.00;56.30
37232;DHT22;23125;48.156;15.954;2023-07-09T04:23:42;20.00;56.30
37232;DHT22;23125;48.156;15.954;2023-07-09T04:26:13;20.10;56.40
37232;DHT22;23125;48.156;15.954;2023-07-09T04:28:39;20.10;56.50
37232;DHT22;23125;48.156;15.954;2023-07-09T04:31:05;20.10;56.50
37232;DHT22;23125;48.156;15.954;2023-07-09T04:33:31;20.20;56.60
37232;DHT22;23125;48.156;15.954;2023-07-09T04:35:57;20.20;56.60
37232;DHT22;23125;48.156;15.954;2023-07-09T04:38:23;20.30;56.70
37232;DHT22;23125;48.156;15.954;2023-07-09T04:40:49;20.30;56.70
37232;DHT22;23125;48.156;15.954;2023-07-09T04:43:14;20.30;56.80
37232;DHT22;23125;48.156;15.954;2023-07-09T04:45:40;20.40;56.90
37232;DHT22;23125;48.156;15.954;2023-07-09T04:48:07;20.40;57.00
37232;DHT22;23125;48.156;15.954;2023-07-09T04:50:33;20.50;57.10
37232;DHT22;23125;48.156;15.954;2023-07-09T04:53:00;20.50;57.10
37232;DHT22;23125;48.156;15.954;2023-07-09T04:55:26;20.60;57.20
37232;DHT22;23125;48.156;15.954;2023-07-09T04:57:52;20.60;57.30
37232;DHT22;23125;48.156;15.954;2023-07-09T05:00:19;20.70;57.50
37232;DHT22;23125;48.156;15.954;2023-07-09T05:02:44;20.70;57.50
37232;DHT22;23125;48.156;15.954;2023-07-09T05:05:10;20.80;57.50
37232;DHT22;23125;48.156;15.954;2023-07-09T05:07:38;20.90;57.60
37232;DHT22;23125;48.156;15.954;2023-07-09T05:10:06;21.00;57.80
37232;DHT22;23125;48.156;15.954;2023-07-09T05:12:32;21.00;57.90
37232;DHT22;23125;48.156;15.954;2023-07-09T05:14:57;21.10;58.00
37232;DHT22;23125;48.156;15.954;2023-07-09T05:17:23;21.20;58.30
37232;DHT22;23125;48.156;15.954;2023-07-09T05:19:51;21.40;58.50
37232;DHT22;23125;48.156;15.954;2023-07-09T05:22:16;21.70;59.70
37232;DHT22;23125;48.156;15.954;2023-07-09T05:24:42;22.10;59.70
37232;DHT22;23125;48.156;15.954;2023-07-09T05:27:08;22.40;59.90
37232;DHT22;23125;48.156;15.954;2023-07-09T05:29:34;22.70;59.70
37232;DHT22;23125;48.156;15.954;2023-07-09T05:32:00;23.00;59.70
37232;DHT22;23125;48.156;15.954;2023-07-09T05:34:26;23.50;59.80
37232;DHT22;23125;48.156;15.954;2023-07-09T05:36:51;24.10;60.20
37232;DHT22;23125;48.156;15.954;2023-07-09T05:39:17;24.70;60.40
37232;DHT22;23125;48.156;15.954;2023-07-09T05:41:43;25.40;61.00
37232;DHT22;23125;48.156;15.954;2023-07-09T05:44:09;26.30;60.70
37232;DHT22;23125;48.156;15.954;2023-07-09T05:46:36;27.30;59.70
37232;DHT22;23125;48.156;15.954;2023-07-09T05:49:06;28.30;58.10
37232;DHT22;23125;48.156;15.954;2023-07-09T05:51:32;29.20;56.40
37232;DHT22;23125;48.156;15.954;2023-07-09T05:53:58;30.00;56.10
37232;DHT22;23125;48.156;15.954;2023-07-09T05:56:24;30.60;54.50
37232;DHT22;23125;48.156;15.954;2023-07-09T05:58:50;31.20;53.20
37232;DHT22;23125;48.156;15.954;2023-07-09T06:01:16;31.70;53.00
37232;DHT22;23125;48.156;15.954;2023-07-09T06:03:42;32.40;51.70
37232;DHT22;23125;48.156;15.954;2023-07-09T06:06:08;33.10;50.60
37232;DHT22;23125;48.156;15.954;2023-07-09T06:08:34;33.70;49.40
37232;DHT22;23125;48.156;15.954;2023-07-09T06:11:02;34.30;48.40
37232;DHT22;23125;48.156;15.954;2023-07-09T06:13:30;35.00;47.60
37232;DHT22;23125;48.156;15.954;2023-07-09T06:15:59;35.60;46.60
37232;DHT22;23125;48.156;15.954;2023-07-09T06:18:26;36.20;45.80
37232;DHT22;23125;48.156;15.954;2023-07-09T06:20:58;36.80;44.90
37232;DHT22;23125;48.156;15.954;2023-07-09T06:23:24;37.30;43.80
37232;DHT22;23125;48.156;15.954;2023-07-09T06:25:51;37.90;43.00
37232;DHT22;23125;48.156;15.954;2023-07-09T06:28:20;38.40;42.00
37232;DHT22;23125;48.156;15.954;2023-07-09T06:30:48;38.90;41.10
37232;DHT22;23125;48.156;15.954;2023-07-09T06:33:15;39.30;40.20
37232;DHT22;23125;48.156;15.954;2023-07-09T06:35:53;39.70;39.20
37232;DHT22;23125;48.156;15.954;2023-07-09T06:38:19;40.20;38.40
37232;DHT22;23125;48.156;15.954;2023-07-09T06:40:46;40.60;37.50
37232;DHT22;23125;48.156;15.954;2023-07-09T06:43:12;41.00;36.40
37232;DHT22;23125;48.156;15.954;2023-07-09T06:45:38;41.20;35.20
37232;DHT22;23125;48.156;15.954;2023-07-09T06:48:05;41.60;34.80
37232;DHT22;23125;48.156;15.954;2023-07-09T06:50:36;41.90;34.10
37232;DHT22;23125;48.156;15.954;2023-07-09T06:53:02;42.30;33.30
37232;DHT22;23125;48.156;15.954;2023-07-09T06:55:28;42.70;32.50
37232;DHT22;23125;48.156;15.954;2023-07-09T06:57:54;43.00;31.80
37232;DHT22;23125;48.156;15.954;2023-07-09T07:00:20;43.40;31.20
37232;DHT22;23125;48.156;15.954;2023-07-09T07:02:46;43.70;30.60
37232;DHT22;23125;48.156;15.954;2023-07-09T07:05:12;43.90;30.00
37232;DHT22;23125;48.156;15.954;2023-07-09T07:07:37;44.30;29.70
37232;DHT22;23125;48.156;15.954;2023-07-09T07:10:03;44.60;29.20
37232;DHT22;23125;48.156;15.954;2023-07-09T07:12:44;44.80;28.70
37232;DHT22;23125;48.156;15.954;2023-07-09T07:15:12;45.10;28.60
37232;DHT22;23125;48.156;15.954;2023-07-09T07:17:39;45.50;28.10
37232;DHT22;23125;48.156;15.954;2023-07-09T07:20:06;45.70;27.80
37232;DHT22;23125;48.156;15.954;2023-07-09T07:22:33;46.00;27.40
37232;DHT22;23125;48.156;15.954;2023-07-09T07:24:59;46.30;27.20
37232;DHT22;23125;48.156;15.954;2023-07-09T07:27:24;46.40;26.90
37232;DHT22;23125;48.156;15.954;2023-07-09T07:29:50;46.70;26.60
37232;DHT22;23125;48.156;15.954;2023-07-09T07:32:16;46.90;26.50
37232;DHT22;23125;48.156;15.954;2023-07-09T07:34:42;47.20;26.30
37232;DHT22;23125;48.156;15.954;2023-07-09T07:37:08;47.30;26.00
37232;DHT22;23125;48.156;15.954;2023-07-09T07:39:34;47.40;25.60
37232;DHT22;23125;48.156;15.954;2023-07-09T07:42:00;47.50;25.60
37232;DHT22;23125;48.156;15.954;2023-07-09T07:44:26;47.60;25.70
37232;DHT22;23125;48.156;15.954;2023-07-09T07:46:52;47.70;25.50
37232;DHT22;23125;48.156;15.954;2023-07-09T07:49:18;47.80;25.50
37232;DHT22;23125;48.156;15.954;2023-07-09T07:51:44;48.00;25.40
37232;DHT22;23125;48.156;15.954;2023-07-09T07:54:09;48.00;25.20
37232;DHT22;23125;48.156;15.954;2023-07-09T07:56:36;48.10;25.10
37232;DHT22;23125;48.156;15.954;2023-07-09T07:59:03;48.10;25.00
37232;DHT22;23125;48.156;15.954;2023-07-09T08:01:29;48.10;25.00
37232;DHT22;23125;48.156;15.954;2023-07-09T08:03:55;48.10;24.70
37232;DHT22;23125;48.156;15.954;2023-07-09T08:06:22;48.20;24.70
37232;DHT22;23125;48.156;15.954;2023-07-09T08:08:48;48.20;24.60
37232;DHT22;23125;48.156;15.954;2023-07-09T08:11:14;48.30;24.50
37232;DHT22;23125;48.156;15.954;2023-07-09T08:13:40;48.40;24.60
37232;DHT22;23125;48.156;15.954;2023-07-09T08:16:07;48.50;24.60
37232;DHT22;23125;48.156;15.954;2023-07-09T08:18:34;48.70;24.50
37232;DHT22;23125;48.156;15.954;2023-07-09T08:21:00;48.80;24.40
37232;DHT22;23125;48.156;15.954;2023-07-09T08:23:26;48.80;24.10
37232;DHT22;23125;48.156;15.954;2023-07-09T08:25:53;48.80;24.10
37232;DHT22;23125;48.156;15.954;2023-07-09T08:28:19;48.80;23.90
37232;DHT22;23125;48.156;15.954;2023-07-09T08:30:45;48.90;24.00
37232;DHT22;23125;48.156;15.954;2023-07-09T08:33:11;49.00;23.80
37232;DHT22;23125;48.156;15.954;2023-07-09T08:35:37;49.00;23.80
37232;DHT22;23125;48.156;15.954;2023-07-09T08:38:03;49.10;23.70
37232;DHT22;23125;48.156;15.954;2023-07-09T08:40:30;49.10;23.60
37232;DHT22;23125;48.156;15.954;2023-07-09T08:43:05;49.10;23.50
37232;DHT22;23125;48.156;15.954;2023-07-09T08:45:36;49.10;23.20
37232;DHT22;23125;48.156;15.954;2023-07-09T08:48:22;49.10;23.30
37232;DHT22;23125;48.156;15.954;2023-07-09T08:50:54;49.20;23.30
37232;DHT22;23125;48.156;15.954;2023-07-09T08:53:30;49.20;23.00
37232;DHT22;23125;48.156;15.954;2023-07-09T08:55:57;49.00;22.80
37232;DHT22;23125;48.156;15.954;2023-07-09T08:58:29;48.80;22.60
37232;DHT22;23125;48.156;15.954;2023-07-09T09:00:59;48.70;22.70
37232;DHT22;23125;48.156;15.954;2023-07-09T09:06:15;48.70;22.70
37232;DHT22;23125;48.156;15.954;2023-07-09T09:08:47;48.70;22.40
37232;DHT22;23125;48.156;15.954;2023-07-09T09:11:41;48.60;22.40
37232;DHT22;23125;48.156;15.954;2023-07-09T09:16:45;48.60;22.60
37232;DHT22;23125;48.156;15.954;2023-07-09T09:19:25;48.70;23.10
37232;DHT22;23125;48.156;15.954;2023-07-09T09:21:58;48.70;22.20
37232;DHT22;23125;48.156;15.954;2023-07-09T09:24:54;48.70;22.40
37232;DHT22;23125;48.156;15.954;2023-07-09T09:27:21;48.70;22.40
37232;DHT22;23125;48.156;15.954;2023-07-09T09:29:47;48.70;22.20
37232;DHT22;23125;48.156;15.954;2023-07-09T09:32:22;48.70;22.10
37232;DHT22;23125;48.156;15.954;2023-07-09T09:34:49;48.70;22.10
37232;DHT22;23125;48.156;15.954;2023-07-09T09:37:25;48.70;22.30
37232;DHT22;23125;48.156;15.954;2023-07-09T09:39:52;48.70;21.90
37232;DHT22;23125;48.156;15.954;2023-07-09T09:42:18;48.40;21.80
37232;DHT22;23125;48.156;15.954;2023-07-09T09:44:45;48.30;22.20
37232;DHT22;23125;48.156;15.954;2023-07-09T09:47:12;48.30;22.30
37232;DHT22;23125;48.156;15.954;2023-07-09T09:49:43;48.30;22.10
37232;DHT22;23125;48.156;15.954;2023-07-09T09:52:17;48.10;21.70
37232;DHT22;23125;48.156;15.954;2023-07-09T09:54:53;48.00;21.80
37232;DHT22;23125;48.156;15.954;2023-07-09T09:57:23;47.90;22.20
37232;DHT22;23125;48.156;15.954;2023-07-09T09:59:50;47.80;21.80
37232;DHT22;23125;48.156;15.954;2023-07-09T10:02:23;47.50;21.60
37232;DHT22;23125;48.156;15.954;2023-07-09T10:04:51;47.20;21.70
37232;DHT22;23125;48.156;15.954;2023-07-09T10:07:42;47.00;22.00
37232;DHT22;23125;48.156;15.954;2023-07-09T10:10:20;46.70;21.90
37232;DHT22;23125;48.156;15.954;2023-07-09T10:13:15;46.30;21.80
37232;DHT22;23125;48.156;15.954;2023-07-09T10:22:06;44.20;22.00
37232;DHT22;23125;48.156;15.954;2023-07-09T10:24:55;43.60;22.50
37232;DHT22;23125;48.156;15.954;2023-07-09T10:27:30;43.10;22.40
37232;DHT22;23125;48.156;15.954;2023-07-09T10:30:11;42.40;22.30
37232;DHT22;23125;48.156;15.954;2023-07-09T10:33:10;41.90;22.50
37232;DHT22;23125;48.156;15.954;2023-07-09T10:41:03;40.30;23.20
37232;DHT22;23125;48.156;15.954;2023-07-09T10:46:05;39.70;24.40
37232;DHT22;23125;48.156;15.954;2023-07-09T10:48:44;39.60;24.90
37232;DHT22;23125;48.156;15.954;2023-07-09T10:51:39;39.40;25.30
37232;DHT22;23125;48.156;15.954;2023-07-09T10:54:35;39.10;24.60
37232;DHT22;23125;48.156;15.954;2023-07-09T10:57:22;38.90;25.00
37232;DHT22;23125;48.156;15.954;2023-07-09T10:59:51;38.80;25.20
37232;DHT22;23125;48.156;15.954;2023-07-09T11:02:24;38.70;25.30
37232;DHT22;23125;48.156;15.954;2023-07-09T11:04:59;38.60;25.40
37232;DHT22;23125;48.156;15.954;2023-07-09T11:07:44;38.50;25.50
37232;DHT22;23125;48.156;15.954;2023-07-09T11:10:23;38.40;25.10
37232;DHT22;23125;48.156;15.954;2023-07-09T11:13:04;38.10;25.00
37232;DHT22;23125;48.156;15.954;2023-07-09T11:15:40;37.80;25.00
37232;DHT22;23125;48.156;15.954;2023-07-09T11:18:10;37.70;25.40
37232;DHT22;23125;48.156;15.954;2023-07-09T11:20:44;37.60;25.40
37232;DHT22;23125;48.156;15.954;2023-07-09T11:23:22;37.40;25.60
37232;DHT22;23125;48.156;15.954;2023-07-09T11:26:02;37.20;25.80
37232;DHT22;23125;48.156;15.954;2023-07-09T11:28:36;37.10;25.70
37232;DHT22;23125;48.156;15.954;2023-07-09T11:31:08;37.00;25.70
37232;DHT22;23125;48.156;15.954;2023-07-09T11:33:49;36.80;26.40
37232;DHT22;23125;48.156;15.954;2023-07-09T11:36:25;36.70;26.40
37232;DHT22;23125;48.156;15.954;2023-07-09T11:38:52;36.60;26.50
37232;DHT22;23125;48.156;15.954;2023-07-09T11:41:27;36.60;26.60
37232;DHT22;23125;48.156;15.954;2023-07-09T11:46:52;36.60;26.70
37232;DHT22;23125;48.156;15.954;2023-07-09T11:49:24;36.50;26.20
37232;DHT22;23125;48.156;15.954;2023-07-09T11:52:03;36.50;26.50
37232;DHT22;23125;48.156;15.954;2023-07-09T11:54:33;36.50;26.90
37232;DHT22;23125;48.156;15.954;2023-07-09T11:57:00;36.50;26.90
37232;DHT22;23125;48.156;15.954;2023-07-09T11:59:28;36.50;26.60
37232;DHT22;23125;48.156;15.954;2023-07-09T12:01:55;36.50;26.60
37232;DHT22;23125;48.156;15.954;2023-07-09T12:04:32;36.40;26.30
37232;DHT22;23125;48.156;15.954;2023-07-09T12:07:00;36.40;26.00
37232;DHT22;23125;48.156;15.954;2023-07-09T12:09:31;36.30;26.10
37232;DHT22;23125;48.156;15.954;2023-07-09T12:11:58;36.30;25.80
37232;DHT22;23125;48.156;15.954;2023-07-09T12:14:24;36.20;25.50
37232;DHT22;23125;48.156;15.954;2023-07-09T12:16:52;36.10;25.40
37232;DHT22;23125;48.156;15.954;2023-07-09T12:19:20;36.00;25.50
37232;DHT22;23125;48.156;15.954;2023-07-09T12:21:49;35.90;25.50
37232;DHT22;23125;48.156;15.954;2023-07-09T12:24:22;35.90;25.90
37232;DHT22;23125;48.156;15.954;2023-07-09T12:27:00;35.80;26.10
37232;DHT22;23125;48.156;15.954;2023-07-09T12:29:34;35.80;26.30
37232;DHT22;23125;48.156;15.954;2023-07-09T12:32:06;35.80;26.30
37232;DHT22;23125;48.156;15.954;2023-07-09T12:34:35;35.80;27.00
37232;DHT22;23125;48.156;15.954;2023-07-09T12:37:01;35.80;26.70
37232;DHT22;23125;48.156;15.954;2023-07-09T12:39:29;35.80;26.70
37232;DHT22;23125;48.156;15.954;2023-07-09T12:42:00;35.80;26.50
37232;DHT22;23125;48.156;15.954;2023-07-09T12:44:31;35.70;26.80
37232;DHT22;23125;48.156;15.954;2023-07-09T12:46:58;35.70;26.70
37232;DHT22;23125;48.156;15.954;2023-07-09T12:49:27;35.70;26.50
37232;DHT22;23125;48.156;15.954;2023-07-09T12:51:54;35.70;26.90
37232;DHT22;23125;48.156;15.954;2023-07-09T12:54:21;35.70;26.90
37232;DHT22;23125;48.156;15.954;2023-07-09T12:56:51;35.60;27.10
37232;DHT22;23125;48.156;15.954;2023-07-09T12:59:24;35.70;27.30
37232;DHT22;23125;48.156;15.954;2023-07-09T13:02:18;35.60;27.40
37232;DHT22;23125;48.156;15.954;2023-07-09T13:04:45;35.60;27.40
37232;DHT22;23125;48.156;15.954;2023-07-09T13:07:25;35.60;27.40
37232;DHT22;23125;48.156;15.954;2023-07-09T13:09:53;35.50;27.00
37232;DHT22;23125;48.156;15.954;2023-07-09T13:12:32;35.50;27.10
37232;DHT22;23125;48.156;15.954;2023-07-09T13:14:59;35.40;27.50
37232;DHT22;23125;48.156;15.954;2023-07-09T13:17:30;35.40;27.70
37232;DHT22;23125;48.156;15.954;2023-07-09T13:19:56;35.40;27.60
37232;DHT22;23125;48.156;15.954;2023-07-09T13:22:23;35.30;27.40
37232;DHT22;23125;48.156;15.954;2023-07-09T13:24:50;35.30;27.60
37232;DHT22;23125;48.156;15.954;2023-07-09T13:27:17;35.30;27.30
37232;DHT22;23125;48.156;15.954;2023-07-09T13:29:43;35.20;27.40
37232;DHT22;23125;48.156;15.954;2023-07-09T13:32:10;35.20;27.70
37232;DHT22;23125;48.156;15.954;2023-07-09T13:34:38;35.10;27.80
37232;DHT22;23125;48.156;15.954;2023-07-09T13:37:05;35.10;27.80
37232;DHT22;23125;48.156;15.954;2023-07-09T13:39:31;35.10;28.00
37232;DHT22;23125;48.156;15.954;2023-07-09T13:41:58;35.10;28.00
37232;DHT22;23125;48.156;15.954;2023-07-09T13:44:27;35.10;28.20
37232;DHT22;23125;48.156;15.954;2023-07-09T13:46:54;35.10;28.20
37232;DHT22;23125;48.156;15.954;2023-07-09T13:49:22;35.10;28.10
37232;DHT22;23125;48.156;15.954;2023-07-09T13:51:51;35.00;28.30
37232;DHT22;23125;48.156;15.954;2023-07-09T13:54:23;35.00;28.40
37232;DHT22;23125;48.156;15.954;2023-07-09T13:56:50;35.00;28.60
37232;DHT22;23125;48.156;15.954;2023-07-09T13:59:24;35.00;29.00
37232;DHT22;23125;48.156;15.954;2023-07-09T14:01:53;35.00;28.60
37232;DHT22;23125;48.156;15.954;2023-07-09T14:04:21;34.90;28.50
37232;DHT22;23125;48.156;15.954;2023-07-09T14:06:47;34.90;28.30
37232;DHT22;23125;48.156;15.954;2023-07-09T14:09:14;34.90;28.20
37232;DHT22;23125;48.156;15.954;2023-07-09T14:11:50;34.80;28.40
37232;DHT22;23125;48.156;15.954;2023-07-09T14:14:20;34.80;28.80
37232;DHT22;23125;48.156;15.954;2023-07-09T14:16:46;34.80;29.00
37232;DHT22;23125;48.156;15.954;2023-07-09T14:19:14;34.80;28.90
37232;DHT22;23125;48.156;15.954;2023-07-09T14:21:40;34.80;28.80
37232;DHT22;23125;48.156;15.954;2023-07-09T14:26:40;34.80;28.80
37232;DHT22;23125;48.156;15.954;2023-07-09T14:29:07;34.80;28.90
37232;DHT22;23125;48.156;15.954;2023-07-09T14:31:32;34.80;28.90
37232;DHT22;23125;48.156;15.954;2023-07-09T14:34:19;34.80;28.90
37232;DHT22;23125;48.156;15.954;2023-07-09T14:36:47;34.80;28.90
37232;DHT22;23125;48.156;15.954;2023-07-09T14:39:13;34.80;29.00
37232;DHT22;23125;48.156;15.954;2023-07-09T14:41:38;34.80;29.00
37232;DHT22;23125;48.156;15.954;2023-07-09T14:44:14;34.80;28.90
37232;DHT22;23125;48.156;15.954;2023-07-09T14:46:44;34.80;29.00
37232;DHT22;23125;48.156;15.954;2023-07-09T14:49:10;34.70;29.00
37232;DHT22;23125;48.156;15.954;2023-07-09T14:51:35;34.80;29.10
37232;DHT22;23125;48.156;15.954;2023-07-09T14:54:01;34.80;29.10
37232;DHT22;23125;48.156;15.954;2023-07-09T14:56:27;34.80;29.10
37232;DHT22;23125;48.156;15.954;2023-07-09T14:58:52;34.70;29.10
37232;DHT22;23125;48.156;15.954;2023-07-09T15:01:18;34.80;29.20
37232;DHT22;23125;48.156;15.954;2023-07-09T15:03:46;34.70;29.10
37232;DHT22;23125;48.156;15.954;2023-07-09T15:06:11;34.70;29.00
37232;DHT22;23125;48.156;15.954;2023-07-09T15:08:38;34.60;28.90
37232;DHT22;23125;48.156;15.954;2023-07-09T15:11:03;34.60;28.90
37232;DHT22;23125;48.156;15.954;2023-07-09T15:13:30;34.60;28.90
37232;DHT22;23125;48.156;15.954;2023-07-09T15:15:59;34.50;28.90
37232;DHT22;23125;48.156;15.954;2023-07-09T15:18:25;34.50;29.00
37232;DHT22;23125;48.156;15.954;2023-07-09T15:20:52;34.50;29.00
37232;DHT22;23125;48.156;15.954;2023-07-09T15:23:18;34.50;29.10
37232;DHT22;23125;48.156;15.954;2023-07-09T15:25:44;34.50;29.10
37232;DHT22;23125;48.156;15.954;2023-07-09T15:28:10;34.40;29.20
37232;DHT22;23125;48.156;15.954;2023-07-09T15:30:36;34.40;29.20
37232;DHT22;23125;48.156;15.954;2023-07-09T15:33:02;34.40;29.30
37232;DHT22;23125;48.156;15.954;2023-07-09T15:35:31;34.40;29.30
37232;DHT22;23125;48.156;15.954;2023-07-09T15:37:57;34.40;29.20
37232;DHT22;23125;48.156;15.954;2023-07-09T15:40:24;34.30;29.20
37232;DHT22;23125;48.156;15.954;2023-07-09T15:42:53;34.30;29.30
37232;DHT22;23125;48.156;15.954;2023-07-09T15:45:20;34.30;29.40
37232;DHT22;23125;48.156;15.954;2023-07-09T15:47:47;34.30;29.40
37232;DHT22;23125;48.156;15.954;2023-07-09T15:50:20;34.20;29.40
37232;DHT22;23125;48.156;15.954;2023-07-09T15:52:46;34.20;29.50
37232;DHT22;23125;48.156;15.954;2023-07-09T15:55:14;34.20;29.50
37232;DHT22;23125;48.156;15.954;2023-07-09T15:57:41;34.20;29.60